Time;durP1;ratioP1;P1;durP2;ratioP2;P2;SDS_P1;SDS_P2;PMS_P1;PMS_P2;Temp;Humidity;BMP_temperature;BMP_pressure;BME280_temperature;BME280_humidity;BME280_pressure;Samples;Min_cycle;Max_cycle;Signal;HPM_P1;HPM_P2
2021/03/29 00:02:19;;;;;;;18.25;17.25;;;22.60;99.90;;;;;;5096455;28;20032;-63
2021/03/29 00:04:47;;;;;;;16.88;15.95;;;22.40;99.90;;;;;;5095588;28;20036;-63
2021/03/29 00:07:16;;;;;;;15.00;14.13;;;22.50;99.90;;;;;;5095712;28;20031;-64
2021/03/29 00:09:45;;;;;;;15.77;14.77;;;22.70;99.90;;;;;;5095625;28;20026;-64
2021/03/29 00:12:12;;;;;;;15.20;14.20;;;22.30;99.90;;;;;;5094093;28;20496;-63
2021/03/29 00:14:42;;;;;;;14.88;13.85;;;22.40;99.90;;;;;;5094243;28;20043;-63
2021/03/29 00:17:09;;;;;;;14.65;13.68;;;22.50;99.90;;;;;;5095422;28;20099;-63
2021/03/29 00:19:38;;;;;;;13.52;12.57;;;22.60;99.90;;;;;;5095478;28;20028;-66
2021/03/29 00:22:06;;;;;;;12.63;11.82;;;22.90;99.90;;;;;;5095663;28;20039;-63
2021/03/29 00:24:35;;;;;;;11.30;10.40;;;23.10;99.90;;;;;;5095519;28;20026;-63
2021/03/29 00:27:03;;;;;;;11.20;10.35;;;23.10;99.90;;;;;;5096082;28;20020;-63
2021/03/29 00:29:31;;;;;;;10.60;9.70;;;23.30;99.90;;;;;;5095109;28;20051;-63
2021/03/29 00:31:59;;;;;;;9.80;9.20;;;23.10;99.90;;;;;;5095262;28;20020;-64
2021/03/29 00:34:27;;;;;;;9.90;9.20;;;22.80;99.90;;;;;;5095006;28;20484;-62
2021/03/29 00:36:55;;;;;;;10.35;9.15;;;22.80;99.90;;;;;;5095087;28;20016;-63
2021/03/29 00:39:25;;;;;;;10.07;9.15;;;22.90;99.90;;;;;;5094739;28;20048;-62
2021/03/29 00:41:53;;;;;;;9.23;8.52;;;23.00;99.90;;;;;;5095536;28;20028;-63
2021/03/29 00:44:21;;;;;;;9.52;8.82;;;23.40;99.90;;;;;;5094908;28;20052;-64
2021/03/29 00:46:49;;;;;;;10.20;9.00;;;23.90;99.90;;;;;;5094907;28;20073;-64
2021/03/29 00:49:17;;;;;;;8.57;7.97;;;24.00;99.90;;;;;;5095133;28;20097;-65
2021/03/29 00:51:45;;;;;;;8.85;8.10;;;23.60;99.90;;;;;;5094825;28;20027;-63
2021/03/29 00:54:13;;;;;;;8.10;7.40;;;23.60;99.90;;;;;;5094856;28;20113;-62
2021/03/29 00:56:41;;;;;;;7.40;6.80;;;23.30;99.90;;;;;;5094743;28;20469;-64
2021/03/29 00:59:09;;;;;;;8.70;8.02;;;23.40;99.90;;;;;;5094689;28;20020;-63
2021/03/29 01:01:50;;;;;;;8.40;7.70;;;23.60;99.90;;;;;;5094658;28;20381;-64
2021/03/29 01:04:19;;;;;;;7.68;7.10;;;23.70;99.90;;;;;;5094562;28;20028;-63
2021/03/29 01:06:52;;;;;;;9.05;8.25;;;23.40;99.90;;;;;;5093619;28;20090;-63
2021/03/29 01:09:25;;;;;;;8.05;7.47;;;23.80;99.90;;;;;;5094490;28;20030;-62
2021/03/29 01:12:00;;;;;;;7.22;6.72;;;24.20;99.90;;;;;;5094461;28;20558;-63
2021/03/29 01:14:33;;;;;;;8.18;7.05;;;24.50;99.90;;;;;;5094407;28;20020;-62
2021/03/29 01:17:21;;;;;;;6.70;6.30;;;24.70;99.90;;;;;;5094266;28;20024;-64
2021/03/29 01:19:57;;;;;;;6.95;6.43;;;24.70;99.90;;;;;;5094243;28;20146;-64
2021/03/29 01:22:31;;;;;;;7.70;7.00;;;24.60;99.50;;;;;;5094269;28;20031;-62
2021/03/29 01:25:01;;;;;;;9.05;6.95;;;24.40;99.90;;;;;;5094076;28;20032;-63
2021/03/29 01:27:55;;;;;;;7.68;6.97;;;24.40;99.90;;;;;;5094396;28;20020;-62
2021/03/29 01:30:23;;;;;;;7.00;6.60;;;24.20;99.90;;;;;;5094005;28;20020;-63
2021/03/29 01:32:53;;;;;;;6.82;6.43;;;24.10;99.90;;;;;;5094082;28;20020;-63
2021/03/29 01:35:30;;;;;;;7.00;6.40;;;24.00;99.90;;;;;;5094272;28;20114;-63
2021/03/29 01:37:59;;;;;;;7.05;6.43;;;23.70;99.90;;;;;;5092791;28;20032;-63
2021/03/29 01:40:27;;;;;;;7.43;6.80;;;23.50;99.30;;;;;;5093849;28;20036;-64
2021/03/29 01:42:57;;;;;;;7.30;6.65;;;23.30;99.90;;;;;;5094713;28;20031;-63
2021/03/29 01:45:26;;;;;;;7.23;6.70;;;23.00;99.90;;;;;;5093836;28;20410;-63
2021/03/29 01:47:53;;;;;;;8.10;7.53;;;23.00;99.90;;;;;;5093697;28;20741;-64
2021/03/29 01:50:26;;;;;;;7.97;7.50;;;23.00;99.80;;;;;;5093682;28;20020;-62
2021/03/29 01:52:55;;;;;;;8.27;7.75;;;22.90;99.90;;;;;;5093662;28;20376;-63
2021/03/29 01:55:28;;;;;;;8.32;7.80;;;22.90;99.90;;;;;;5092314;28;20024;-63
2021/03/29 01:57:55;;;;;;;7.78;7.18;;;23.50;99.90;;;;;;5092293;28;20028;-64
2021/03/29 02:00:30;;;;;;;7.70;7.10;;;24.10;99.90;;;;;;5093486;28;20016;-65
2021/03/29 02:03:06;;;;;;;8.48;7.90;;;24.70;99.90;;;;;;5092148;28;20024;-65
2021/03/29 02:05:34;;;;;;;12.32;7.90;;;25.20;99.90;;;;;;5093475;28;20612;-64
2021/03/29 02:08:03;;;;;;;9.27;8.57;;;25.50;99.90;;;;;;5093411;28;20491;-65
2021/03/29 02:10:37;;;;;;;9.50;8.57;;;25.00;99.90;;;;;;5093680;28;20024;-66
2021/03/29 02:13:18;;;;;;;9.55;8.70;;;24.40;99.90;;;;;;5093978;28;20024;-66
2021/03/29 02:15:47;;;;;;;9.20;8.50;;;24.00;99.90;;;;;;5093991;28;20372;-66
2021/03/29 02:18:21;;;;;;;9.73;8.90;;;23.40;99.90;;;;;;5093180;28;20031;-67
2021/03/29 02:20:50;;;;;;;9.10;8.27;;;23.70;99.90;;;;;;5093420;28;20028;-67
2021/03/29 02:23:21;;;;;;;9.20;8.35;;;24.00;99.90;;;;;;5093365;28;20020;-67
2021/03/29 02:25:49;;;;;;;8.57;7.72;;;24.20;99.90;;;;;;5093235;28;20054;-67
2021/03/29 02:28:18;;;;;;;10.38;9.40;;;24.20;99.90;;;;;;5093162;28;20489;-67
2021/03/29 02:30:49;;;;;;;9.88;8.88;;;24.10;99.90;;;;;;5093084;28;20023;-66
2021/03/29 02:33:17;;;;;;;9.48;8.68;;;23.70;99.90;;;;;;5093812;28;20025;-67
2021/03/29 02:35:46;;;;;;;10.20;9.18;;;23.60;99.90;;;;;;5093229;28;20363;-67
2021/03/29 02:38:16;;;;;;;9.75;8.98;;;23.50;99.90;;;;;;5093022;28;20484;-66
2021/03/29 02:40:48;;;;;;;9.00;8.30;;;23.60;99.90;;;;;;5092914;28;20040;-67
2021/03/29 02:43:16;;;;;;;9.02;8.27;;;23.80;99.90;;;;;;5092510;28;20122;-67
2021/03/29 02:45:59;;;;;;;8.68;7.88;;;23.90;99.90;;;;;;5092895;28;20035;-66
2021/03/29 02:48:29;;;;;;;8.50;7.80;;;23.80;99.90;;;;;;5093114;28;20020;-66
2021/03/29 02:50:59;;;;;;;9.52;8.65;;;23.60;99.90;;;;;;5093844;28;20032;-66
2021/03/29 02:53:33;;;;;;;10.20;9.30;;;23.50;99.90;;;;;;5093024;28;20362;-66
2021/03/29 02:56:05;;;;;;;9.63;8.73;;;23.40;99.90;;;;;;5093286;28;20032;-66
2021/03/29 02:58:36;;;;;;;9.77;8.93;;;23.30;99.90;;;;;;5092310;28;20368;-65
2021/03/29 03:01:04;;;;;;;9.90;8.90;;;23.20;99.90;;;;;;5093181;28;20023;-66
2021/03/29 03:03:33;;;;;;;10.30;9.30;;;23.20;99.90;;;;;;5093300;28;20469;-66
2021/03/29 03:06:02;;;;;;;9.80;8.73;;;23.10;99.90;;;;;;5092833;28;20491;-66
2021/03/29 03:08:29;;;;;;;10.63;9.55;;;23.70;99.90;;;;;;5093178;28;20373;-66
2021/03/29 03:10:57;;;;;;;9.93;9.13;;;23.70;99.90;;;;;;5092896;28;20023;-65
2021/03/29 03:13:25;;;;;;;9.05;8.23;;;23.70;99.90;;;;;;5091482;28;20016;-65
2021/03/29 03:15:52;;;;;;;9.05;8.40;;;24.00;99.90;;;;;;5092816;28;20036;-65
2021/03/29 03:18:20;;;;;;;9.85;8.85;;;24.10;99.90;;;;;;5092724;28;20028;-65
2021/03/29 03:20:47;;;;;;;8.70;8.13;;;24.70;99.90;;;;;;5092561;28;20046;-66
2021/03/29 03:23:18;;;;;;;8.25;7.60;;;24.80;99.90;;;;;;5093132;28;20024;-66
2021/03/29 03:25:49;;;;;;;8.93;8.15;;;24.60;99.90;;;;;;5092949;28;20485;-67
2021/03/29 03:28:22;;;;;;;9.15;8.25;;;24.20;99.90;;;;;;5093101;28;20020;-65
2021/03/29 03:30:52;;;;;;;9.38;8.65;;;24.00;99.90;;;;;;5093309;28;20475;-66
2021/03/29 03:33:22;;;;;;;10.07;9.10;;;23.60;99.90;;;;;;5096426;28;20042;-65
2021/03/29 03:35:52;;;;;;;9.27;8.57;;;23.40;99.90;;;;;;5096544;28;20024;-65
2021/03/29 03:38:37;;;;;;;8.82;8.30;;;23.10;99.90;;;;;;5096680;28;20028;-67
2021/03/29 03:41:10;;;;;;;8.63;7.93;;;23.50;99.90;;;;;;5096384;28;20044;-65
2021/03/29 03:43:43;;;;;;;8.88;8.10;;;24.00;99.90;;;;;;5096325;28;20031;-65
2021/03/29 03:46:14;;;;;;;9.10;8.20;;;23.80;99.90;;;;;;5094922;28;20159;-65
2021/03/29 03:48:44;;;;;;;9.00;8.40;;;23.40;99.90;;;;;;5096700;28;20023;-66
2021/03/29 03:51:12;;;;;;;9.30;8.40;;;23.20;99.90;;;;;;5096043;28;20059;-66
2021/03/29 03:53:40;;;;;;;10.75;9.75;;;23.00;99.90;;;;;;5096466;28;20031;-65
2021/03/29 03:56:08;;;;;;;9.38;8.63;;;23.10;99.90;;;;;;5096097;28;20361;-66
2021/03/29 03:58:37;;;;;;;10.13;9.13;;;23.20;99.90;;;;;;5095857;28;20024;-65
2021/03/29 04:01:08;;;;;;;8.98;8.27;;;23.20;99.90;;;;;;5095322;28;20023;-64
2021/03/29 04:03:35;;;;;;;8.70;7.93;;;23.50;99.90;;;;;;5095986;28;20024;-65
2021/03/29 04:06:03;;;;;;;9.52;8.77;;;24.20;99.90;;;;;;5095934;28;20016;-66
2021/03/29 04:08:30;;;;;;;8.50;7.90;;;24.60;99.90;;;;;;5096221;28;20031;-67
2021/03/29 04:10:59;;;;;;;8.30;7.80;;;24.40;99.90;;;;;;5094264;28;20020;-65
2021/03/29 04:13:28;;;;;;;8.82;8.00;;;24.50;99.90;;;;;;5096219;28;20115;-66
2021/03/29 04:15:57;;;;;;;9.57;8.50;;;24.50;99.90;;;;;;5095468;28;20380;-66
2021/03/29 04:18:25;;;;;;;10.70;7.90;;;24.50;99.90;;;;;;5094015;28;20476;-64
2021/03/29 04:20:53;;;;;;;8.40;7.75;;;24.80;99.90;;;;;;5095413;28;20093;-66
2021/03/29 04:23:25;;;;;;;8.38;7.80;;;24.70;99.90;;;;;;5095109;28;20110;-65
2021/03/29 04:25:53;;;;;;;8.25;7.60;;;24.50;99.90;;;;;;5095493;28;20091;-65
2021/03/29 04:28:21;;;;;;;8.15;7.50;;;24.60;99.90;;;;;;5093931;28;20028;-66
2021/03/29 04:30:50;;;;;;;8.13;7.60;;;24.80;99.90;;;;;;5095020;28;20028;-65
2021/03/29 04:33:19;;;;;;;8.05;7.45;;;24.90;99.90;;;;;;5095094;28;20028;-65
2021/03/29 04:35:47;;;;;;;7.57;6.88;;;24.90;99.90;;;;;;5093711;28;20506;-66
2021/03/29 04:38:14;;;;;;;7.68;7.00;;;24.60;99.90;;;;;;5095138;28;20027;-66
2021/03/29 04:40:42;;;;;;;7.75;7.10;;;24.70;99.90;;;;;;5095450;28;20078;-67
2021/03/29 04:43:10;;;;;;;7.53;6.93;;;24.80;99.90;;;;;;5094934;28;20099;-66
2021/03/29 04:45:38;;;;;;;7.45;6.95;;;24.90;99.90;;;;;;5093470;28;20028;-66
2021/03/29 04:48:06;;;;;;;7.60;7.10;;;24.80;99.90;;;;;;5094842;28;20020;-65
2021/03/29 04:50:34;;;;;;;8.43;7.80;;;25.00;99.90;;;;;;5094611;28;20476;-66
2021/03/29 04:53:01;;;;;;;7.57;7.15;;;25.00;99.90;;;;;;5094808;28;20020;-67
2021/03/29 04:55:28;;;;;;;8.05;7.45;;;24.90;99.90;;;;;;5094744;28;20016;-65
2021/03/29 04:57:56;;;;;;;7.70;7.30;;;25.00;99.90;;;;;;5094710;28;20448;-66
2021/03/29 05:00:23;;;;;;;8.98;8.00;;;25.10;99.90;;;;;;5094672;28;20108;-66
2021/03/29 05:02:51;;;;;;;7.90;7.40;;;25.10;99.90;;;;;;5094552;28;20041;-65
2021/03/29 05:05:18;;;;;;;7.85;7.30;;;25.10;99.90;;;;;;5094370;28;20059;-65
2021/03/29 05:07:46;;;;;;;8.23;7.57;;;24.80;99.90;;;;;;5094455;28;20019;-65
2021/03/29 05:10:16;;;;;;;6.82;6.32;;;24.80;99.90;;;;;;5093044;28;20380;-65
2021/03/29 05:12:44;;;;;;;6.93;6.40;;;24.90;99.90;;;;;;5094494;28;20021;-65
2021/03/29 05:15:12;;;;;;;7.20;6.60;;;24.80;99.90;;;;;;5094297;28;20465;-64
2021/03/29 05:17:40;;;;;;;8.25;7.65;;;24.60;99.90;;;;;;5094282;28;20099;-65
2021/03/29 05:20:09;;;;;;;7.55;7.05;;;24.80;99.90;;;;;;5094273;28;20024;-66
2021/03/29 05:22:37;;;;;;;7.35;6.85;;;24.60;99.90;;;;;;5094489;28;20492;-65
2021/03/29 05:25:05;;;;;;;6.80;6.40;;;24.70;99.90;;;;;;5094153;28;20028;-65
2021/03/29 05:27:32;;;;;;;7.05;6.55;;;24.60;99.90;;;;;;5092679;28;20024;-64
2021/03/29 05:29:59;;;;;;;7.10;6.60;;;24.60;99.90;;;;;;5093981;28;20024;-64
2021/03/29 05:32:28;;;;;;;6.97;6.47;;;24.40;99.90;;;;;;5094206;28;20548;-65
2021/03/29 05:35:02;;;;;;;7.28;6.78;;;24.20;99.90;;;;;;5093796;28;20522;-65
2021/03/29 05:37:30;;;;;;;7.07;6.68;;;24.30;99.90;;;;;;5093972;28;20028;-65
2021/03/29 05:39:59;;;;;;;7.13;6.63;;;24.20;99.90;;;;;;5093503;28;20044;-64
2021/03/29 05:42:29;;;;;;;6.85;6.45;;;24.20;99.90;;;;;;5093771;28;20020;-65
2021/03/29 05:45:09;;;;;;;6.90;6.43;;;24.00;99.90;;;;;;5092384;28;20174;-64
2021/03/29 05:47:37;;;;;;;7.07;6.40;;;23.70;99.90;;;;;;5094747;28;20039;-65
2021/03/29 05:50:08;;;;;;;6.80;6.40;;;23.80;99.90;;;;;;5093743;28;20035;-65
2021/03/29 05:52:36;;;;;;;6.80;6.28;;;23.90;99.90;;;;;;5093250;28;20020;-63
2021/03/29 05:55:07;;;;;;;5.65;5.35;;;23.90;99.90;;;;;;5093714;28;20111;-65
2021/03/29 05:57:54;;;;;;;6.43;6.03;;;23.90;99.90;;;;;;5093688;28;20028;-64
2021/03/29 06:00:40;;;;;;;6.78;6.07;;;23.90;99.90;;;;;;5093595;28;20032;-64
2021/03/29 06:03:29;;;;;;;6.43;6.03;;;23.90;99.90;;;;;;5094262;28;20024;-67
2021/03/29 06:06:17;;;;;;;6.55;6.03;;;23.80;99.90;;;;;;5093374;28;20032;-67
2021/03/29 06:08:45;;;;;;;6.97;6.47;;;23.80;99.90;;;;;;5092609;28;20027;-66
2021/03/29 06:11:33;;;;;;;7.10;6.60;;;23.80;99.90;;;;;;5093518;28;20020;-67
2021/03/29 06:14:20;;;;;;;5.47;5.15;;;23.60;99.90;;;;;;5092166;28;20032;-67
2021/03/29 06:17:03;;;;;;;5.38;4.85;;;23.60;99.90;;;;;;5092064;28;20035;-69
2021/03/29 06:19:46;;;;;;;8.85;8.15;;;23.60;99.90;;;;;;5094008;28;20028;-68
2021/03/29 06:22:15;;;;;;;6.30;5.82;;;23.40;99.90;;;;;;5093876;28;20024;-67
2021/03/29 06:24:56;;;;;;;6.75;6.25;;;23.40;99.90;;;;;;5091972;28;20063;-67
2021/03/29 06:27:26;;;;;;;5.68;5.20;;;23.50;99.90;;;;;;5093394;28;20412;-66
2021/03/29 06:30:16;;;;;;;5.28;4.80;;;23.50;99.90;;;;;;5093106;28;20085;-67
2021/03/29 06:33:16;;;;;;;6.90;6.50;;;23.50;99.90;;;;;;5093473;28;20016;-67
2021/03/29 06:35:49;;;;;;;6.47;6.03;;;23.40;99.90;;;;;;5078778;28;20069;-68
2021/03/29 06:38:25;;;;;;;5.72;5.43;;;23.30;99.90;;;;;;5093256;28;20028;-68
2021/03/29 06:40:53;;;;;;;7.03;5.43;;;23.10;99.90;;;;;;5091875;28;20114;-67
2021/03/29 06:43:20;;;;;;;6.28;5.88;;;23.20;99.90;;;;;;5093408;28;20422;-67
2021/03/29 06:45:49;;;;;;;6.03;5.72;;;23.10;99.90;;;;;;5093040;28;20096;-67
2021/03/29 06:48:28;;;;;;;5.30;5.00;;;23.00;99.90;;;;;;5093129;28;20020;-62
2021/03/29 06:51:09;;;;;;;10.40;9.48;;;23.00;99.90;;;;;;5093125;28;20020;-63
2021/03/29 06:53:39;;;;;;;7.80;5.15;;;23.00;99.90;;;;;;5092823;28;20044;-63
2021/03/29 06:56:39;;;;;;;6.85;5.15;;;22.90;99.90;;;;;;5092865;28;20366;-63
2021/03/29 06:59:19;;;;;;;5.53;5.03;;;22.80;99.90;;;;;;5049473;28;20047;-63
2021/03/29 07:01:54;;;;;;;5.50;5.17;;;22.80;99.90;;;;;;5092826;28;20384;-62
2021/03/29 07:04:26;;;;;;;5.68;5.20;;;22.60;99.90;;;;;;5092815;28;20028;-64
2021/03/29 07:06:57;;;;;;;5.28;4.97;;;22.60;99.90;;;;;;5095455;28;20020;-64
2021/03/29 07:09:25;;;;;;;6.03;4.72;;;22.50;99.90;;;;;;5097132;28;20050;-64
2021/03/29 07:11:52;;;;;;;5.13;4.82;;;22.50;99.90;;;;;;5097039;28;20020;-64
2021/03/29 07:14:21;;;;;;;5.25;4.95;;;22.40;99.90;;;;;;5096828;28;20442;-63
2021/03/29 07:16:49;;;;;;;7.43;5.55;;;22.20;99.90;;;;;;5096794;28;20052;-62
2021/03/29 07:19:16;;;;;;;5.30;4.90;;;22.00;99.90;;;;;;5096974;28;20039;-64
2021/03/29 07:21:48;;;;;;;7.32;6.82;;;22.00;99.90;;;;;;5096755;28;20016;-63
2021/03/29 07:24:18;;;;;;;6.95;6.40;;;21.90;99.90;;;;;;5096735;28;20426;-63
2021/03/29 07:26:59;;;;;;;6.45;6.05;;;21.90;99.90;;;;;;5096628;28;20027;-63
2021/03/29 07:29:32;;;;;;;5.70;5.20;;;21.80;99.90;;;;;;5096613;28;20101;-65
2021/03/29 07:32:05;;;;;;;6.15;5.65;;;21.70;99.90;;;;;;5096500;28;20024;-66
2021/03/29 07:34:42;;;;;;;5.13;4.80;;;21.50;99.90;;;;;;5097122;28;20017;-63
2021/03/29 07:37:35;;;;;;;5.10;4.70;;;21.50;99.90;;;;;;5095140;28;20028;-64
2021/03/29 07:40:20;;;;;;;5.32;4.93;;;21.50;99.90;;;;;;5096406;28;20047;-64
2021/03/29 07:42:50;;;;;;;5.70;5.20;;;21.40;99.90;;;;;;5096307;28;20036;-64
2021/03/29 07:45:17;;;;;;;;;;;21.30;99.90;;;;;;5096750;28;20024;-64
2021/03/29 07:47:54;;;;;;;5.25;4.72;;;21.20;99.90;;;;;;5096273;28;19926;-63
2021/03/29 07:50:27;;;;;;;5.25;4.82;;;21.10;99.90;;;;;;5094940;28;20024;-63
2021/03/29 07:53:04;;;;;;;5.70;4.90;;;21.00;99.90;;;;;;5096026;28;20016;-62
2021/03/29 07:55:42;;;;;;;5.30;4.90;;;20.90;99.90;;;;;;5096122;28;20024;-63
2021/03/29 07:58:20;;;;;;;5.97;5.55;;;20.80;99.90;;;;;;5094719;28;20035;-62
2021/03/29 08:00:49;;;;;;;5.30;4.85;;;20.80;99.90;;;;;;5096156;28;20020;-64
2021/03/29 08:03:17;;;;;;;6.17;5.40;;;20.70;99.90;;;;;;5095986;28;20024;-62
2021/03/29 08:05:47;;;;;;;5.00;4.25;;;20.70;99.90;;;;;;5095604;28;20035;-63
2021/03/29 08:08:27;;;;;;;9.57;4.68;;;20.60;99.90;;;;;;5095861;28;20012;-63
2021/03/29 08:10:57;;;;;;;6.25;5.00;;;20.50;99.90;;;;;;5095972;28;20035;-63
2021/03/29 08:13:39;;;;;;;5.32;4.93;;;20.50;99.90;;;;;;5095699;28;20486;-65
2021/03/29 08:16:09;;;;;;;6.07;5.68;;;20.40;99.90;;;;;;5095059;28;20024;-62
2021/03/29 08:19:12;;;;;;;6.68;5.85;;;20.40;99.90;;;;;;5095511;28;20020;-63
2021/03/29 08:21:42;;;;;;;6.63;5.97;;;20.40;99.90;;;;;;5094172;28;20024;-62
2021/03/29 08:24:18;;;;;;;8.20;7.70;;;20.40;99.90;;;;;;5094102;28;20027;-62
2021/03/29 08:26:46;;;;;;;8.35;7.80;;;20.40;99.90;;;;;;5095501;28;20035;-63
2021/03/29 08:29:14;;;;;;;8.02;7.43;;;20.30;99.90;;;;;;5095361;28;20024;-63
2021/03/29 08:32:18;;;;;;;8.20;7.50;;;20.30;99.90;;;;;;5095402;28;20154;-62
2021/03/29 08:34:52;;;;;;;7.10;6.50;;;20.20;99.90;;;;;;5095461;28;20024;-63
2021/03/29 08:37:44;;;;;;;7.85;7.13;;;20.20;99.90;;;;;;5095595;28;20077;-62
2021/03/29 08:40:14;;;;;;;8.02;7.38;;;20.10;99.90;;;;;;5095082;28;20524;-61
2021/03/29 08:42:43;;;;;;;8.65;5.95;;;20.10;99.90;;;;;;5095066;28;20378;-62
2021/03/29 08:45:16;;;;;;;5.95;5.45;;;20.00;99.90;;;;;;5094950;28;20471;-62
2021/03/29 08:47:45;;;;;;;6.13;5.50;;;20.00;99.90;;;;;;5095155;28;20020;-62
2021/03/29 08:50:28;;;;;;;6.95;6.32;;;20.00;99.90;;;;;;5094839;28;20027;-62
2021/03/29 08:53:00;;;;;;;5.47;5.00;;;20.10;99.90;;;;;;5095633;28;20020;-62
2021/03/29 08:55:34;;;;;;;8.50;7.90;;;20.10;99.90;;;;;;5095582;28;20020;-62
2021/03/29 08:58:02;;;;;;;8.80;8.10;;;20.10;99.90;;;;;;5094918;28;20039;-63
2021/03/29 09:00:38;;;;;;;8.27;7.72;;;20.10;99.90;;;;;;5094803;28;20106;-63
2021/03/29 09:03:26;;;;;;;8.40;7.70;;;20.20;99.90;;;;;;5094844;28;20020;-62
2021/03/29 09:05:53;;;;;;;7.78;7.28;;;20.20;99.90;;;;;;5094470;28;20437;-61
2021/03/29 09:08:20;;;;;;;8.60;8.00;;;20.30;99.90;;;;;;5094805;28;20140;-63
2021/03/29 09:10:48;;;;;;;10.45;7.25;;;20.30;99.90;;;;;;5094780;28;20473;-63
2021/03/29 09:13:16;;;;;;;8.65;7.95;;;20.40;99.90;;;;;;5094641;28;20016;-63
2021/03/29 09:15:48;;;;;;;8.65;7.90;;;20.40;99.90;;;;;;5094684;28;20037;-62
2021/03/29 09:18:18;;;;;;;7.70;7.20;;;20.30;99.90;;;;;;5094481;28;20020;-65
2021/03/29 09:20:47;;;;;;;7.50;6.88;;;20.20;99.90;;;;;;5094424;28;20055;-64
2021/03/29 09:23:19;;;;;;;7.60;7.00;;;20.20;99.90;;;;;;5094421;28;20158;-63
2021/03/29 09:25:49;;;;;;;8.50;8.10;;;20.20;99.90;;;;;;5094259;28;20028;-63
2021/03/29 09:31:01;;;;;;;8.38;7.93;;;20.10;99.90;;;;;;5094164;28;20480;-62
2021/03/29 09:33:30;;;;;;;6.75;6.13;;;20.10;99.90;;;;;;5094816;28;20020;-63
2021/03/29 09:36:06;;;;;;;7.03;6.63;;;20.10;99.90;;;;;;5094501;28;20077;-63
2021/03/29 09:38:39;;;;;;;5.60;5.20;;;20.10;99.90;;;;;;5093952;28;20105;-64
2021/03/29 09:41:24;;;;;;;6.97;6.57;;;20.10;99.90;;;;;;5092788;28;20036;-64
2021/03/29 09:43:57;;;;;;;6.90;6.50;;;20.10;99.90;;;;;;5094594;28;20089;-62
2021/03/29 09:46:33;;;;;;;6.32;6.00;;;20.20;99.90;;;;;;5094276;28;20027;-64
2021/03/29 09:49:15;;;;;;;6.57;5.97;;;20.20;99.90;;;;;;5094487;28;20028;-63
2021/03/29 09:51:47;;;;;;;6.93;6.45;;;20.20;99.90;;;;;;5094155;28;20027;-63
2021/03/29 09:54:27;;;;;;;8.05;7.55;;;20.10;99.90;;;;;;5093833;28;20422;-62
2021/03/29 09:56:56;;;;;;;8.48;8.07;;;20.10;99.90;;;;;;5094982;28;20036;-63
2021/03/29 09:59:34;;;;;;;9.35;8.75;;;20.10;99.90;;;;;;5093759;28;20449;-62
2021/03/29 10:02:09;;;;;;;9.20;8.65;;;20.10;99.90;;;;;;5093990;28;20028;-63
2021/03/29 10:04:36;;;;;;;8.77;8.13;;;20.00;99.90;;;;;;5093661;28;20020;-63
2021/03/29 10:07:04;;;;;;;8.38;7.82;;;20.10;99.90;;;;;;5093491;28;20020;-63
2021/03/29 10:09:36;;;;;;;8.88;8.20;;;20.10;99.90;;;;;;5093625;28;20019;-63
2021/03/29 10:12:05;;;;;;;9.60;9.10;;;20.10;99.90;;;;;;5093503;28;20552;-63
2021/03/29 10:14:37;;;;;;;9.88;9.18;;;20.00;99.90;;;;;;5093433;28;20020;-63
2021/03/29 10:17:20;;;;;;;9.85;9.27;;;20.00;99.90;;;;;;5093432;28;20388;-62
2021/03/29 10:19:48;;;;;;;9.90;9.35;;;19.90;99.90;;;;;;5093359;28;20028;-63
2021/03/29 10:22:19;;;;;;;8.85;8.25;;;19.90;99.90;;;;;;5094003;28;20078;-62
2021/03/29 10:25:05;;;;;;;10.23;9.43;;;20.00;99.90;;;;;;5093586;28;20429;-62
2021/03/29 10:27:46;;;;;;;9.80;9.20;;;20.00;99.90;;;;;;5093257;28;20024;-62
2021/03/29 10:30:22;;;;;;;10.55;9.57;;;20.00;99.90;;;;;;5093143;28;20020;-62
2021/03/29 10:32:55;;;;;;;9.45;8.95;;;19.90;99.90;;;;;;5091975;28;20016;-64
2021/03/29 10:35:24;;;;;;;11.23;10.20;;;19.80;99.90;;;;;;5093320;28;20031;-62
2021/03/29 10:37:52;;;;;;;11.02;10.20;;;19.80;99.90;;;;;;5093552;28;20059;-62
2021/03/29 10:40:21;;;;;;;9.98;9.27;;;19.80;99.90;;;;;;5096596;28;20043;-63
2021/03/29 10:42:49;;;;;;;10.35;9.65;;;19.80;99.90;;;;;;5097514;28;20027;-62
2021/03/29 10:45:18;;;;;;;9.70;8.82;;;19.80;99.90;;;;;;5097275;28;20024;-66
2021/03/29 10:47:46;;;;;;;10.20;9.50;;;19.90;99.90;;;;;;5098179;28;20074;-64
2021/03/29 10:50:16;;;;;;;10.80;9.98;;;19.90;99.90;;;;;;5097163;28;20111;-64
2021/03/29 10:52:44;;;;;;;9.85;9.25;;;20.00;99.90;;;;;;5097808;28;20027;-63
2021/03/29 10:55:12;;;;;;;13.55;12.32;;;20.00;99.90;;;;;;5097126;28;20049;-64
2021/03/29 10:57:39;;;;;;;30.58;28.17;;;19.90;99.90;;;;;;5097182;28;20035;-63
2021/03/29 11:00:08;;;;;;;36.45;33.95;;;19.50;99.90;;;;;;5097388;28;20484;-63
2021/03/29 11:02:36;;;;;;;41.05;38.17;;;19.30;99.90;;;;;;5097072;28;20028;-62
2021/03/29 11:05:04;;;;;;;41.08;38.17;;;19.00;99.90;;;;;;5096984;28;20017;-62
2021/03/29 11:07:32;;;;;;;43.53;40.35;;;18.90;99.90;;;;;;5096968;28;20479;-62
2021/03/29 11:09:59;;;;;;;46.83;43.30;;;18.80;99.90;;;;;;5096869;28;20044;-62
2021/03/29 11:12:27;;;;;;;50.72;46.53;;;18.70;99.90;;;;;;5096908;28;20019;-62
2021/03/29 11:14:54;;;;;;;51.20;46.92;;;18.60;99.90;;;;;;5096729;28;20024;-63
2021/03/29 11:17:24;;;;;;;51.25;46.88;;;18.50;99.90;;;;;;5096761;28;20023;-63
2021/03/29 11:19:51;;;;;;;53.37;48.40;;;18.40;99.90;;;;;;5096611;28;20429;-62
2021/03/29 11:22:19;;;;;;;54.35;49.80;;;18.40;99.90;;;;;;5096541;28;20397;-62
2021/03/29 11:24:46;;;;;;;55.72;51.45;;;18.50;99.90;;;;;;5096485;28;20028;-63
2021/03/29 11:27:13;;;;;;;56.72;52.10;;;18.50;99.90;;;;;;5096470;28;20023;-63
2021/03/29 11:29:41;;;;;;;57.17;51.70;;;18.60;99.90;;;;;;5096367;28;20028;-63
2021/03/29 11:32:08;;;;;;;56.03;51.72;;;18.60;99.90;;;;;;5095849;28;20461;-63
2021/03/29 11:34:35;;;;;;;56.42;51.90;;;18.50;99.90;;;;;;5096491;28;20093;-64
2021/03/29 11:37:03;;;;;;;57.05;51.85;;;18.60;99.90;;;;;;5096379;28;20468;-63
2021/03/29 11:39:31;;;;;;;56.50;51.30;;;18.30;99.90;;;;;;5094786;28;20048;-67
2021/03/29 11:41:58;;;;;;;57.83;53.00;;;18.40;99.90;;;;;;5096384;28;20427;-62
2021/03/29 11:44:26;;;;;;;57.95;53.13;;;18.40;99.90;;;;;;5096096;28;20016;-63
2021/03/29 11:46:53;;;;;;;60.40;54.88;;;18.40;99.90;;;;;;5096060;28;20487;-63
2021/03/29 11:49:20;;;;;;;57.80;52.92;;;18.40;99.90;;;;;;5096210;28;20028;-64
2021/03/29 11:51:48;;;;;;;58.28;53.13;;;18.30;99.90;;;;;;5095146;28;20016;-64
2021/03/29 11:54:18;;;;;;;62.15;56.83;;;18.30;99.90;;;;;;5096089;28;20020;-64
2021/03/29 11:56:45;;;;;;;62.78;56.60;;;18.30;99.90;;;;;;5096620;28;20378;-64
2021/03/29 11:59:13;;;;;;;72.88;66.38;;;18.30;99.90;;;;;;5095977;28;20020;-64
2021/03/29 12:01:46;;;;;;;63.78;58.15;;;18.30;99.90;;;;;;5095801;28;20056;-64
2021/03/29 12:06:54;;;;;;;;;;;;;;;;;;;;;
2021/03/29 12:11:58;;;;;;;56.95;51.28;;;18.30;99.90;;;;;;5095745;28;20485;-63
2021/03/29 12:14:34;;;;;;;59.40;54.03;;;18.30;99.90;;;;;;5096556;28;20081;-63
2021/03/29 12:17:03;;;;;;;54.80;49.45;;;18.30;99.90;;;;;;5096179;28;20340;-63
2021/03/29 12:19:31;;;;;;;55.72;49.90;;;18.30;99.90;;;;;;5095755;28;20115;-64
2021/03/29 12:22:33;;;;;;;59.05;53.72;;;18.30;99.90;;;;;;5095534;28;20106;-64
2021/03/29 12:25:01;;;;;;;60.67;54.83;;;18.40;99.90;;;;;;5092478;28;20036;-64
2021/03/29 12:27:29;;;;;;;59.90;54.35;;;18.40;99.90;;;;;;5095521;28;20042;-64
2021/03/29 12:29:56;;;;;;;58.95;53.22;;;18.30;99.90;;;;;;5095394;28;20427;-64
2021/03/29 12:32:24;;;;;;;59.78;54.05;;;18.30;99.90;;;;;;5095286;28;20027;-62
2021/03/29 12:34:59;;;;;;;59.88;54.67;;;18.30;99.90;;;;;;5095287;28;20024;-64
2021/03/29 12:37:31;;;;;;;65.80;59.63;;;18.30;99.90;;;;;;5093997;28;20072;-64
2021/03/29 12:40:08;;;;;;;57.33;51.92;;;18.40;99.90;;;;;;5094974;28;20055;-63
2021/03/29 12:45:26;;;;;;;59.13;52.95;;;18.40;99.90;;;;;;5095067;28;20362;-63
2021/03/29 12:47:59;;;;;;;59.97;54.05;;;18.40;99.90;;;;;;5094856;28;20024;-63
2021/03/29 12:50:27;;;;;;;105.38;97.93;;;18.30;99.90;;;;;;5094883;28;20417;-64
2021/03/29 12:52:55;;;;;;;96.28;89.45;;;18.30;99.90;;;;;;5093686;28;20476;-62
2021/03/29 12:55:25;;;;;;;97.15;90.43;;;18.30;99.90;;;;;;5094820;28;20381;-63
2021/03/29 12:57:55;;;;;;;95.80;89.23;;;18.20;99.90;;;;;;5094775;28;20099;-63
2021/03/29 13:00:24;;;;;;;;;;;18.20;99.90;;;;;;5095152;28;20451;-64
2021/03/29 13:02:56;;;;;;;99.80;93.03;;;18.10;99.90;;;;;;5094624;28;20436;-63
2021/03/29 13:05:48;;;;;;;99.20;92.20;;;18.00;99.90;;;;;;5094839;28;20028;-62
2021/03/29 13:08:24;;;;;;;98.38;91.85;;;18.00;99.90;;;;;;5094698;28;20357;-63
2021/03/29 13:13:40;;;;;;;93.97;87.15;;;18.00;99.90;;;;;;5094900;28;20154;-62
2021/03/29 13:16:08;;;;;;;93.05;86.65;;;17.80;99.90;;;;;;5094474;28;20522;-63
2021/03/29 13:18:35;;;;;;;91.78;85.65;;;17.80;99.90;;;;;;5094401;28;20029;-62
2021/03/29 13:21:03;;;;;;;88.47;81.97;;;17.80;99.90;;;;;;5094552;28;20103;-64